Time;durP1;ratioP1;P1;durP2;ratioP2;P2;SDS_P1;SDS_P2;PMS_P1;PMS_P2;Temp;Humidity;BMP_temperature;BMP_pressure;BME280_temperature;BME280_humidity;BME280_pressure;Samples;Min_cycle;Max_cycle;Signal;HPM_P1;HPM_P2
2022/10/06 00:01:24;;;;;;;4.97;0.88;;;16.00;73.70;;;;;;5113554;28;20054;-73
2022/10/06 00:03:49;;;;;;;5.47;0.90;;;16.00;73.40;;;;;;5113568;28;20088;-72
2022/10/06 00:06:16;;;;;;;5.65;0.63;;;16.00;73.30;;;;;;5113531;28;20032;-72
2022/10/06 00:08:42;;;;;;;5.88;0.90;;;15.90;73.00;;;;;;5113212;28;20024;-72
2022/10/06 00:11:09;;;;;;;3.20;0.60;;;15.90;73.00;;;;;;5113486;28;20016;-73
2022/10/06 00:13:36;;;;;;;4.78;1.30;;;15.90;72.90;;;;;;5113441;28;20088;-72
2022/10/06 00:16:13;;;;;;;4.72;0.73;;;15.90;72.90;;;;;;5113620;28;20052;-73
2022/10/06 00:18:38;;;;;;;5.30;0.73;;;15.80;72.60;;;;;;5113464;28;20012;-72
2022/10/06 00:21:04;;;;;;;6.15;0.90;;;15.80;73.10;;;;;;5113392;28;20410;-72
2022/10/06 00:23:30;;;;;;;2.13;0.75;;;15.70;73.20;;;;;;5113363;28;20040;-72
2022/10/06 00:25:57;;;;;;;4.50;0.75;;;15.70;73.50;;;;;;5113346;28;20032;-72
2022/10/06 00:28:23;;;;;;;5.05;0.85;;;15.70;73.70;;;;;;5113169;28;20027;-72
2022/10/06 00:30:52;;;;;;;3.53;0.65;;;15.70;74.00;;;;;;5113293;28;20016;-72
2022/10/06 00:33:18;;;;;;;3.42;0.68;;;15.60;74.30;;;;;;5113287;28;20020;-72
2022/10/06 00:35:44;;;;;;;1.85;0.52;;;15.60;74.50;;;;;;5113276;28;20027;-72
2022/10/06 00:38:13;;;;;;;6.82;0.90;;;15.60;74.50;;;;;;5113255;28;20047;-72
2022/10/06 00:40:46;;;;;;;3.33;0.68;;;15.50;74.70;;;;;;5113220;28;20024;-72
2022/10/06 00:43:45;;;;;;;4.72;0.60;;;15.50;74.90;;;;;;5113176;28;20032;-72
2022/10/06 00:46:29;;;;;;;5.85;0.68;;;15.50;74.70;;;;;;5095239;28;20028;-73
2022/10/06 00:49:05;;;;;;;1.80;0.68;;;15.40;74.60;;;;;;5113153;28;20036;-73
2022/10/06 00:51:32;;;;;;;5.28;0.93;;;15.30;74.70;;;;;;5113011;28;20040;-72
2022/10/06 00:53:57;;;;;;;5.82;1.02;;;15.30;74.80;;;;;;5113083;28;20031;-73
2022/10/06 00:56:24;;;;;;;4.43;0.95;;;15.30;74.50;;;;;;5113057;28;20044;-72
2022/10/06 00:58:50;;;;;;;5.45;0.75;;;15.20;74.50;;;;;;5113032;28;20028;-72
2022/10/06 01:01:16;;;;;;;5.82;0.95;;;15.20;74.40;;;;;;5113037;28;20034;-73
2022/10/06 01:03:49;;;;;;;3.60;0.75;;;15.20;74.10;;;;;;5112974;28;20032;-72
2022/10/06 01:06:15;;;;;;;5.03;0.90;;;15.20;74.30;;;;;;5113002;28;20042;-73
2022/10/06 01:08:40;;;;;;;5.60;0.98;;;15.20;74.30;;;;;;5112880;28;20036;-73
2022/10/06 01:11:12;;;;;;;2.88;1.05;;;15.20;74.10;;;;;;5116505;28;20054;-72
2022/10/06 01:13:39;;;;;;;9.07;1.00;;;15.20;74.00;;;;;;5116625;28;20031;-72
2022/10/06 01:16:15;;;;;;;8.02;1.05;;;15.20;74.10;;;;;;5116536;28;20029;-72
2022/10/06 01:18:42;;;;;;;4.30;1.15;;;15.20;74.00;;;;;;5116534;28;20067;-72
2022/10/06 01:21:40;;;;;;;4.75;1.00;;;15.10;73.90;;;;;;5116419;28;20046;-72
2022/10/06 01:24:06;;;;;;;6.35;0.88;;;15.10;73.90;;;;;;5107974;28;20044;-72
2022/10/06 01:26:34;;;;;;;4.10;1.13;;;15.10;74.60;;;;;;5116245;28;20036;-72
2022/10/06 01:29:00;;;;;;;4.70;1.00;;;15.10;73.80;;;;;;5116208;28;20538;-72
2022/10/06 01:31:26;;;;;;;3.72;1.23;;;15.10;73.90;;;;;;5116211;28;20028;-72
2022/10/06 01:33:53;;;;;;;5.88;1.00;;;15.10;74.00;;;;;;5116186;28;20028;-72
2022/10/06 01:36:19;;;;;;;2.63;0.50;;;15.10;74.20;;;;;;5116153;28;20103;-72
2022/10/06 01:38:45;;;;;;;5.95;1.00;;;15.00;74.50;;;;;;5116095;28;20087;-72
2022/10/06 01:41:11;;;;;;;5.93;1.15;;;15.00;74.90;;;;;;5116068;28;20036;-72
2022/10/06 01:43:36;;;;;;;4.85;0.90;;;15.00;75.00;;;;;;5116128;28;20050;-72
2022/10/06 01:46:02;;;;;;;6.35;1.23;;;15.00;76.00;;;;;;5115957;28;20032;-72
2022/10/06 01:48:27;;;;;;;5.90;1.00;;;15.00;75.20;;;;;;5115823;28;20036;-72
2022/10/06 01:50:54;;;;;;;3.88;0.88;;;15.00;75.40;;;;;;5115715;28;20044;-72
2022/10/06 01:53:20;;;;;;;4.57;1.10;;;15.00;75.40;;;;;;5115812;28;20020;-72
2022/10/06 01:55:45;;;;;;;3.92;0.98;;;14.90;75.50;;;;;;5115786;28;20043;-72
2022/10/06 01:58:12;;;;;;;4.00;0.77;;;15.00;75.40;;;;;;5115860;28;20482;-72
2022/10/06 02:00:38;;;;;;;5.25;1.15;;;14.90;75.40;;;;;;5115667;28;20024;-72
2022/10/06 02:03:04;;;;;;;5.18;0.93;;;14.90;76.40;;;;;;5115625;28;20079;-72
2022/10/06 02:05:30;;;;;;;3.38;1.00;;;14.90;75.60;;;;;;5115588;28;20090;-72
2022/10/06 02:07:55;;;;;;;3.85;0.88;;;14.80;75.70;;;;;;5115423;28;20528;-73
2022/10/06 02:10:21;;;;;;;5.20;1.00;;;14.80;75.70;;;;;;5115495;28;20020;-72
2022/10/06 02:12:53;;;;;;;5.80;0.80;;;14.80;75.60;;;;;;5115414;28;20035;-73
2022/10/06 02:15:19;;;;;;;7.28;0.90;;;14.80;75.80;;;;;;5115242;28;20088;-72
2022/10/06 02:17:46;;;;;;;5.85;1.17;;;14.70;75.70;;;;;;5115331;28;20084;-72
2022/10/06 02:20:12;;;;;;;5.53;0.93;;;14.70;75.70;;;;;;5115221;28;20471;-72
2022/10/06 02:22:39;;;;;;;5.80;0.88;;;14.70;75.60;;;;;;5115225;28;20032;-72
2022/10/06 02:25:06;;;;;;;6.40;0.90;;;14.70;75.50;;;;;;5097265;28;20026;-72
2022/10/06 02:27:31;;;;;;;4.50;0.80;;;14.60;75.60;;;;;;5115025;28;20028;-72
2022/10/06 02:29:57;;;;;;;2.50;0.70;;;14.60;75.60;;;;;;5115000;28;20050;-72
2022/10/06 02:32:22;;;;;;;5.78;1.17;;;14.60;75.40;;;;;;5115037;28;20039;-72
2022/10/06 02:34:48;;;;;;;8.07;1.13;;;14.60;75.40;;;;;;5115008;28;20050;-72
2022/10/06 02:37:14;;;;;;;4.97;1.00;;;14.60;75.40;;;;;;5114943;28;20032;-72
2022/10/06 02:39:40;;;;;;;6.97;1.00;;;14.60;75.60;;;;;;5114912;28;20020;-72
2022/10/06 02:42:06;;;;;;;6.05;1.00;;;14.60;75.60;;;;;;5114858;28;20085;-72
2022/10/06 02:44:32;;;;;;;3.58;1.20;;;14.50;75.40;;;;;;5097006;28;20050;-72
2022/10/06 02:46:58;;;;;;;6.15;1.00;;;14.50;75.60;;;;;;5114683;28;20028;-71
2022/10/06 02:49:24;;;;;;;3.20;0.80;;;14.50;75.70;;;;;;5114509;28;20041;-72
2022/10/06 02:51:50;;;;;;;2.90;0.90;;;14.50;75.60;;;;;;5114721;28;20020;-72
2022/10/06 02:54:16;;;;;;;3.75;0.98;;;14.50;75.50;;;;;;5114613;28;20012;-71
2022/10/06 02:56:41;;;;;;;4.22;1.35;;;14.40;75.30;;;;;;5096578;28;20042;-72
2022/10/06 02:59:07;;;;;;;7.40;0.70;;;14.40;75.40;;;;;;5114547;28;20024;-72
2022/10/06 03:01:33;;;;;;;7.47;1.42;;;14.40;75.50;;;;;;5096637;28;20028;-72
2022/10/06 03:03:58;;;;;;;5.85;0.95;;;14.40;75.60;;;;;;5114456;28;20437;-72
2022/10/06 03:06:27;;;;;;;5.72;1.63;;;14.30;75.50;;;;;;5114372;28;20548;-72
2022/10/06 03:08:58;;;;;;;8.75;1.23;;;14.30;75.50;;;;;;5114266;28;20035;-72
2022/10/06 03:11:32;;;;;;;5.95;0.88;;;14.30;75.50;;;;;;5114297;28;20044;-72
2022/10/06 03:13:58;;;;;;;5.85;0.98;;;14.20;75.50;;;;;;5114323;28;20023;-73
2022/10/06 03:16:25;;;;;;;6.68;1.08;;;14.20;75.70;;;;;;5114207;28;20439;-72
2022/10/06 03:18:53;;;;;;;2.88;1.02;;;14.10;75.70;;;;;;5114178;28;20403;-72
2022/10/06 03:21:21;;;;;;;6.25;0.98;;;14.10;75.60;;;;;;5114149;28;20020;-72
2022/10/06 03:23:48;;;;;;;4.47;1.00;;;14.10;75.70;;;;;;5114086;28;20032;-72
2022/10/06 03:26:16;;;;;;;4.50;1.08;;;14.10;75.60;;;;;;5096422;28;20020;-72
2022/10/06 03:28:42;;;;;;;2.80;0.82;;;14.10;75.50;;;;;;5113890;28;20020;-72
2022/10/06 03:31:08;;;;;;;6.32;1.00;;;14.10;75.50;;;;;;5113964;28;20020;-72
2022/10/06 03:33:34;;;;;;;6.15;1.60;;;14.10;75.60;;;;;;5113491;28;20035;-72
2022/10/06 03:36:06;;;;;;;3.95;0.90;;;14.10;75.70;;;;;;5095938;28;20095;-72
2022/10/06 03:38:33;;;;;;;7.85;1.45;;;14.10;75.70;;;;;;5113880;28;20043;-73
2022/10/06 03:41:26;;;;;;;3.25;1.30;;;14.10;75.50;;;;;;5113956;28;20083;-72
2022/10/06 03:43:53;;;;;;;7.00;0.98;;;14.10;76.20;;;;;;5111243;28;20039;-72
2022/10/06 03:46:22;;;;;;;8.20;1.50;;;14.00;75.50;;;;;;5113915;28;20016;-72
2022/10/06 03:48:49;;;;;;;4.55;1.08;;;14.00;75.70;;;;;;5113778;28;20047;-72
2022/10/06 03:51:28;;;;;;;4.35;1.38;;;14.00;75.70;;;;;;5113568;28;20039;-72
2022/10/06 03:53:55;;;;;;;7.93;0.93;;;14.00;75.80;;;;;;5113685;28;20025;-72
2022/10/06 03:56:33;;;;;;;5.10;0.88;;;13.90;75.90;;;;;;5095844;28;20036;-72
2022/10/06 03:59:01;;;;;;;9.05;1.08;;;13.80;76.20;;;;;;5113645;28;20079;-72
2022/10/06 04:01:44;;;;;;;4.43;1.10;;;13.80;76.40;;;;;;5113567;28;20027;-72
2022/10/06 04:04:11;;;;;;;3.55;0.70;;;13.80;76.30;;;;;;5113621;28;20035;-72
2022/10/06 04:06:38;;;;;;;4.45;1.30;;;13.90;76.20;;;;;;5113464;28;20024;-72
2022/10/06 04:09:06;;;;;;;6.63;0.90;;;13.80;76.20;;;;;;5113466;28;20024;-72
2022/10/06 04:11:34;;;;;;;5.63;2.08;;;13.90;76.20;;;;;;5113473;28;20044;-72
2022/10/06 04:14:11;;;;;;;7.82;1.40;;;13.90;76.30;;;;;;5113473;28;20020;-72
2022/10/06 04:16:46;;;;;;;7.90;1.27;;;13.80;76.40;;;;;;5113480;28;20084;-72
2022/10/06 04:19:14;;;;;;;4.95;1.10;;;13.80;76.60;;;;;;5113455;28;20081;-73
2022/10/06 04:21:42;;;;;;;7.60;1.20;;;13.70;76.70;;;;;;5113384;28;20106;-72
2022/10/06 04:24:09;;;;;;;7.35;1.48;;;13.70;76.70;;;;;;5113395;28;20017;-72
2022/10/06 04:26:38;;;;;;;5.53;1.27;;;13.70;76.90;;;;;;5113333;28;20016;-73
2022/10/06 04:29:03;;;;;;;8.63;1.73;;;13.70;76.80;;;;;;5113240;28;20055;-72
2022/10/06 04:31:35;;;;;;;5.70;1.20;;;13.60;76.90;;;;;;5113277;28;20028;-72
2022/10/06 04:34:02;;;;;;;7.75;1.10;;;13.60;77.00;;;;;;5113338;28;20020;-71
2022/10/06 04:36:34;;;;;;;5.53;1.13;;;13.60;77.20;;;;;;5113249;28;20054;-72
2022/10/06 04:39:02;;;;;;;4.47;1.20;;;13.60;77.20;;;;;;5113325;28;20021;-72
2022/10/06 04:41:34;;;;;;;4.45;1.48;;;13.50;77.30;;;;;;5113202;28;20021;-72
2022/10/06 04:43:59;;;;;;;5.78;1.55;;;13.50;77.40;;;;;;5113630;28;20043;-72
2022/10/06 04:46:26;;;;;;;6.10;1.23;;;13.40;77.70;;;;;;5117105;28;20032;-72
2022/10/06 04:48:53;;;;;;;4.35;1.13;;;13.40;77.70;;;;;;5117016;28;20032;-72
2022/10/06 04:51:20;;;;;;;4.10;1.05;;;13.40;77.70;;;;;;5099133;28;20070;-72
2022/10/06 04:53:47;;;;;;;4.05;0.98;;;13.40;77.90;;;;;;5116998;28;20081;-72
2022/10/06 04:56:17;;;;;;;5.95;1.15;;;13.40;77.90;;;;;;5116940;28;20040;-72
2022/10/06 04:58:47;;;;;;;5.60;1.02;;;13.40;77.80;;;;;;5116901;28;20050;-72
2022/10/06 05:01:18;;;;;;;6.75;1.48;;;13.40;78.60;;;;;;5116863;28;20028;-73
2022/10/06 05:03:45;;;;;;;8.25;1.15;;;13.40;77.70;;;;;;5116939;28;20433;-72
2022/10/06 05:06:32;;;;;;;6.10;1.38;;;13.40;77.70;;;;;;5116741;28;20024;-72
2022/10/06 05:09:06;;;;;;;8.52;1.63;;;13.30;77.80;;;;;;5116623;28;20032;-73
2022/10/06 05:11:32;;;;;;;6.22;1.45;;;13.30;77.80;;;;;;5116696;28;20016;-72
2022/10/06 05:13:58;;;;;;;7.22;1.73;;;13.20;78.80;;;;;;5116579;28;20036;-72
2022/10/06 05:16:26;;;;;;;10.63;1.42;;;13.30;77.90;;;;;;5116511;28;20020;-72
2022/10/06 05:18:52;;;;;;;4.00;0.88;;;13.20;78.00;;;;;;5116470;28;20024;-72
2022/10/06 05:21:23;;;;;;;10.27;1.63;;;13.10;78.10;;;;;;5116450;28;20526;-72
2022/10/06 05:23:49;;;;;;;5.45;1.35;;;13.20;78.20;;;;;;5116408;28;20083;-72
2022/10/06 05:26:18;;;;;;;8.02;1.83;;;13.10;78.10;;;;;;5116349;28;20028;-72
2022/10/06 05:28:43;;;;;;;8.35;1.77;;;13.10;78.30;;;;;;5116144;28;20031;-72
2022/10/06 05:31:20;;;;;;;6.30;1.55;;;13.10;78.20;;;;;;5116269;28;20028;-72
2022/10/06 05:33:46;;;;;;;6.97;1.27;;;13.10;78.30;;;;;;5116245;28;20042;-72
2022/10/06 05:36:13;;;;;;;4.05;1.30;;;13.00;78.20;;;;;;5116181;28;20035;-72
2022/10/06 05:38:39;;;;;;;4.97;1.58;;;13.10;78.20;;;;;;5116122;28;20024;-72
2022/10/06 05:41:16;;;;;;;5.53;1.40;;;13.00;78.10;;;;;;5116065;28;20112;-73
2022/10/06 05:43:42;;;;;;;6.78;1.30;;;13.00;78.20;;;;;;5116015;28;20028;-74
2022/10/06 05:46:16;;;;;;;6.68;1.08;;;13.00;78.10;;;;;;5115947;28;20088;-73
2022/10/06 05:48:47;;;;;;;7.43;1.40;;;13.00;78.10;;;;;;5115844;28;20110;-73
2022/10/06 05:51:14;;;;;;;7.87;1.20;;;13.00;78.10;;;;;;5115898;28;20074;-73
2022/10/06 05:53:40;;;;;;;9.13;1.80;;;13.00;78.10;;;;;;5115768;28;20269;-73
2022/10/06 05:56:14;;;;;;;5.97;1.20;;;13.00;78.10;;;;;;5115251;28;20024;-73
2022/10/06 05:58:43;;;;;;;4.88;1.10;;;12.90;78.30;;;;;;5115900;28;20053;-73
2022/10/06 06:01:13;;;;;;;4.53;1.15;;;12.90;79.00;;;;;;5115697;28;20020;-73
2022/10/06 06:03:40;;;;;;;6.38;1.75;;;12.90;78.10;;;;;;5115615;28;20054;-73
2022/10/06 06:06:31;;;;;;;5.97;1.55;;;12.90;78.20;;;;;;5115541;28;20035;-73
2022/10/06 06:09:01;;;;;;;7.07;1.38;;;12.90;78.30;;;;;;5115479;28;20024;-73
2022/10/06 06:11:30;;;;;;;5.22;1.20;;;12.80;78.40;;;;;;5115650;28;20020;-73
2022/10/06 06:14:01;;;;;;;7.68;1.23;;;12.80;78.30;;;;;;5115413;28;20020;-73
2022/10/06 06:16:31;;;;;;;4.60;1.63;;;12.80;78.30;;;;;;5115391;28;20020;-72
2022/10/06 06:18:58;;;;;;;9.77;1.38;;;12.80;78.30;;;;;;5115590;28;20025;-72
2022/10/06 06:21:24;;;;;;;8.65;1.58;;;12.90;78.30;;;;;;5115259;28;20024;-73
2022/10/06 06:23:49;;;;;;;10.93;1.65;;;12.90;78.20;;;;;;5115218;28;20429;-73
2022/10/06 06:26:18;;;;;;;11.20;1.83;;;12.90;78.10;;;;;;5115199;28;20029;-72
2022/10/06 06:28:47;;;;;;;9.32;1.55;;;12.80;78.20;;;;;;5114963;28;20035;-73
2022/10/06 06:31:21;;;;;;;6.85;1.48;;;12.90;78.20;;;;;;5115102;28;20042;-73
2022/10/06 06:33:52;;;;;;;4.90;1.05;;;12.80;78.20;;;;;;5115088;28;20020;-73
2022/10/06 06:36:26;;;;;;;9.57;1.33;;;12.80;78.20;;;;;;5115026;28;20081;-73
2022/10/06 06:38:54;;;;;;;10.30;1.95;;;12.80;78.30;;;;;;5115127;28;20028;-74
2022/10/06 06:41:26;;;;;;;13.32;2.00;;;12.80;78.20;;;;;;5114911;28;20024;-73
2022/10/06 06:43:51;;;;;;;7.38;1.70;;;12.90;78.30;;;;;;5114895;28;20410;-73
2022/10/06 06:46:20;;;;;;;10.82;1.80;;;12.90;78.10;;;;;;5114791;28;20051;-73
2022/10/06 06:48:46;;;;;;;8.95;1.42;;;12.90;78.10;;;;;;5114670;28;20024;-73
2022/10/06 06:51:12;;;;;;;7.68;1.80;;;12.80;78.10;;;;;;5114508;28;20052;-73
2022/10/06 06:53:39;;;;;;;9.35;1.92;;;12.80;78.30;;;;;;5096646;28;20051;-72
2022/10/06 06:56:07;;;;;;;4.85;1.80;;;12.90;78.50;;;;;;5096687;28;20021;-73
2022/10/06 06:58:35;;;;;;;10.77;1.85;;;12.90;78.40;;;;;;5114619;28;20031;-73
2022/10/06 07:01:05;;;;;;;8.77;1.83;;;12.90;78.30;;;;;;5114508;28;20020;-73
2022/10/06 07:03:31;;;;;;;10.30;1.80;;;13.00;78.10;;;;;;5114460;28;20039;-73
2022/10/06 07:06:11;;;;;;;10.52;1.70;;;12.90;78.00;;;;;;5114382;28;20036;-72
2022/10/06 07:08:42;;;;;;;10.27;2.38;;;13.00;78.30;;;;;;5113900;28;20035;-72
2022/10/06 07:11:21;;;;;;;3.83;1.55;;;13.00;78.40;;;;;;5114337;28;20038;-72
2022/10/06 07:13:52;;;;;;;12.30;1.90;;;13.10;78.40;;;;;;5114440;28;20042;-73
2022/10/06 07:27:19;;;;;;;8.73;2.05;;;13.20;78.50;;;;;;5114110;28;20043;-72
2022/10/06 07:29:45;;;;;;;7.22;1.80;;;13.20;77.80;;;;;;5096079;28;20024;-72
2022/10/06 07:32:12;;;;;;;9.40;2.50;;;13.20;78.40;;;;;;5114012;28;20024;-73
2022/10/06 07:34:38;;;;;;;6.38;1.73;;;13.20;78.50;;;;;;5113953;28;20020;-73
2022/10/06 07:37:04;;;;;;;6.93;1.60;;;13.20;77.90;;;;;;5113909;28;20038;-73
2022/10/06 07:39:30;;;;;;;6.88;1.83;;;13.20;77.60;;;;;;5113829;28;20040;-72
2022/10/06 07:41:56;;;;;;;11.02;2.10;;;13.30;78.00;;;;;;5113827;28;20429;-73
2022/10/06 07:44:22;;;;;;;6.03;1.83;;;13.30;77.90;;;;;;5113801;28;20091;-73
2022/10/06 07:46:48;;;;;;;11.43;2.40;;;13.40;77.70;;;;;;5113717;28;20020;-73
2022/10/06 07:49:16;;;;;;;10.18;1.50;;;13.50;77.60;;;;;;5095928;28;20032;-73
2022/10/06 07:51:42;;;;;;;12.85;2.28;;;13.50;77.10;;;;;;5113701;28;20032;-73
2022/10/06 07:54:08;;;;;;;15.25;1.90;;;13.60;77.50;;;;;;5113635;28;20020;-73
2022/10/06 07:56:33;;;;;;;11.20;2.38;;;13.60;76.60;;;;;;5113623;28;20036;-73
2022/10/06 07:58:59;;;;;;;6.13;1.48;;;13.70;77.00;;;;;;5113600;28;20095;-72
2022/10/06 08:01:26;;;;;;;7.05;1.65;;;13.70;76.40;;;;;;5113562;28;20027;-73
2022/10/06 08:03:52;;;;;;;8.57;2.03;;;13.80;76.60;;;;;;5113544;28;20035;-73
2022/10/06 08:06:18;;;;;;;10.13;2.33;;;13.90;76.50;;;;;;5113522;28;20084;-72
2022/10/06 08:08:46;;;;;;;9.15;2.53;;;13.90;76.10;;;;;;5113396;28;20020;-73
2022/10/06 08:11:13;;;;;;;9.07;1.83;;;14.00;76.10;;;;;;5113507;28;20032;-73
2022/10/06 08:13:41;;;;;;;10.35;2.53;;;14.10;75.80;;;;;;5113450;28;20069;-73
2022/10/06 08:16:13;;;;;;;7.95;1.73;;;14.20;75.40;;;;;;5113566;28;20024;-73
2022/10/06 08:18:39;;;;;;;5.45;1.45;;;14.20;75.40;;;;;;5115208;28;20051;-73
2022/10/06 08:21:09;;;;;;;14.60;3.67;;;14.30;75.50;;;;;;5117614;28;20028;-73
2022/10/06 08:23:39;;;;;;;11.45;3.10;;;14.40;75.00;;;;;;5117550;28;20421;-73
2022/10/06 08:26:05;;;;;;;11.32;2.25;;;14.40;74.60;;;;;;5117677;28;20026;-72
2022/10/06 08:28:31;;;;;;;6.68;1.77;;;14.50;74.00;;;;;;5117353;28;20043;-73
2022/10/06 08:31:01;;;;;;;10.48;2.25;;;14.60;74.10;;;;;;5099678;28;20028;-72
2022/10/06 08:33:27;;;;;;;10.00;2.20;;;14.70;74.00;;;;;;5117404;28;20028;-73
2022/10/06 08:35:53;;;;;;;5.78;1.52;;;14.80;74.10;;;;;;5117534;28;20087;-73
2022/10/06 08:38:20;;;;;;;8.30;1.67;;;14.90;73.70;;;;;;5117235;28;20028;-73
2022/10/06 08:40:46;;;;;;;13.07;1.70;;;14.90;73.60;;;;;;5117245;28;20024;-73
2022/10/06 08:43:17;;;;;;;10.70;2.03;;;15.00;73.70;;;;;;5117223;28;20024;-73
2022/10/06 08:45:45;;;;;;;7.90;2.00;;;15.00;72.60;;;;;;5117208;28;20028;-74
2022/10/06 08:48:16;;;;;;;10.18;1.90;;;15.10;73.10;;;;;;5117051;28;20107;-73
2022/10/06 08:51:17;;;;;;;7.85;1.67;;;15.10;71.30;;;;;;5116936;28;20047;-73
2022/10/06 08:54:10;;;;;;;11.88;2.00;;;15.20;72.00;;;;;;5117216;28;20071;-73
2022/10/06 08:56:53;;;;;;;6.80;1.52;;;15.20;72.50;;;;;;5117119;28;20020;-73
2022/10/06 08:59:19;;;;;;;6.55;1.92;;;15.30;72.10;;;;;;5116963;28;20020;-73
2022/10/06 09:01:48;;;;;;;7.28;2.08;;;15.30;71.10;;;;;;5116843;28;20038;-74
2022/10/06 09:04:27;;;;;;;10.15;1.75;;;15.30;70.60;;;;;;5116785;28;20079;-73
2022/10/06 09:07:04;;;;;;;8.02;1.83;;;15.30;70.30;;;;;;5116717;28;20027;-73
2022/10/06 09:09:50;;;;;;;8.25;1.70;;;15.40;70.50;;;;;;5116859;28;20016;-73
2022/10/06 09:12:19;;;;;;;11.32;1.65;;;15.50;70.80;;;;;;5116845;28;20022;-73
2022/10/06 09:15:08;;;;;;;5.30;1.52;;;15.60;70.30;;;;;;5116620;28;20020;-73
2022/10/06 09:17:39;;;;;;;5.85;1.92;;;15.70;71.10;;;;;;5098672;28;20030;-73
2022/10/06 09:20:23;;;;;;;8.02;2.13;;;15.80;70.10;;;;;;5116689;28;20039;-73
2022/10/06 09:22:50;;;;;;;9.10;1.58;;;15.90;69.90;;;;;;5116653;28;20024;-73
2022/10/06 09:25:20;;;;;;;4.70;1.45;;;15.90;68.40;;;;;;5116446;28;20050;-74
2022/10/06 09:27:50;;;;;;;6.50;1.58;;;16.00;69.20;;;;;;5116285;28;20016;-73
2022/10/06 09:30:16;;;;;;;6.53;1.73;;;16.00;69.10;;;;;;5115499;28;20129;-74
2022/10/06 09:32:50;;;;;;;9.70;1.27;;;16.00;69.00;;;;;;5116432;28;20046;-74
2022/10/06 09:35:21;;;;;;;8.13;1.42;;;16.10;69.50;;;;;;5116379;28;20027;-74
2022/10/06 09:38:02;;;;;;;8.90;1.70;;;16.20;68.00;;;;;;5116182;28;20028;-74
2022/10/06 09:40:38;;;;;;;9.07;1.30;;;16.30;67.00;;;;;;5116304;28;20415;-73
2022/10/06 09:43:17;;;;;;;7.80;1.33;;;16.30;66.20;;;;;;5116256;28;20024;-73
2022/10/06 09:45:42;;;;;;;6.35;1.10;;;16.40;65.60;;;;;;5116050;28;20024;-74
2022/10/06 09:48:25;;;;;;;7.72;1.33;;;16.40;66.20;;;;;;5115854;28;20036;-73
2022/10/06 09:51:10;;;;;;;;;;;16.30;65.20;;;;;;5116161;28;20055;-73
2022/10/06 09:53:38;;;;;;;7.40;1.48;;;16.30;65.30;;;;;;5115833;28;19904;-73
2022/10/06 09:56:18;;;;;;;10.00;1.75;;;16.40;66.70;;;;;;5115813;28;20089;-73
2022/10/06 09:58:56;;;;;;;10.27;1.90;;;16.50;67.10;;;;;;5115804;28;20181;-73
2022/10/06 10:01:27;;;;;;;7.53;1.85;;;16.70;67.00;;;;;;5115698;28;20106;-73
2022/10/06 10:03:59;;;;;;;7.75;1.58;;;16.90;66.60;;;;;;5115645;28;20028;-74
2022/10/06 10:06:30;;;;;;;9.32;1.30;;;17.00;67.20;;;;;;5115640;28;20031;-73
2022/10/06 10:09:26;;;;;;;6.45;1.60;;;17.10;63.80;;;;;;5115545;28;20028;-73
2022/10/06 10:12:23;;;;;;;11.48;1.60;;;17.10;65.30;;;;;;5102832;28;20044;-74
2022/10/06 10:14:50;;;;;;;5.43;1.50;;;17.10;64.50;;;;;;5115472;28;20024;-73
2022/10/06 10:17:35;;;;;;;9.40;1.65;;;17.10;63.60;;;;;;5115343;28;20028;-73
2022/10/06 10:20:04;;;;;;;5.10;1.63;;;17.20;64.10;;;;;;5115395;28;20020;-74
2022/10/06 10:22:34;;;;;;;7.88;2.00;;;17.30;63.50;;;;;;5115352;28;20040;-73
2022/10/06 10:25:36;;;;;;;2.75;1.33;;;17.30;62.10;;;;;;5115306;28;20016;-73
2022/10/06 10:28:16;;;;;;;4.60;1.42;;;17.40;62.50;;;;;;5101726;28;20040;-74
2022/10/06 10:31:16;;;;;;;6.22;1.45;;;17.50;62.50;;;;;;5115167;28;20020;-74
2022/10/06 10:33:56;;;;;;;5.85;1.08;;;17.60;61.00;;;;;;5115086;28;20027;-73
2022/10/06 10:36:33;;;;;;;9.27;2.05;;;17.50;60.20;;;;;;5115209;28;20050;-74
2022/10/06 10:39:00;;;;;;;8.73;1.45;;;17.40;61.10;;;;;;5115017;28;20024;-73
2022/10/06 10:41:31;;;;;;;8.52;1.50;;;17.40;61.00;;;;;;5114193;28;20388;-74
2022/10/06 10:44:09;;;;;;;8.55;1.95;;;17.40;61.30;;;;;;5114680;28;20027;-73
2022/10/06 10:46:37;;;;;;;5.65;1.67;;;17.60;61.10;;;;;;5114868;28;20050;-74
2022/10/06 10:49:11;;;;;;;5.78;1.50;;;17.50;60.30;;;;;;5114701;28;20178;-74
2022/10/06 10:51:41;;;;;;;3.90;1.25;;;17.60;60.90;;;;;;5114588;28;20059;-74
2022/10/06 10:54:14;;;;;;;9.48;1.50;;;17.60;61.10;;;;;;5114870;28;20020;-74
2022/10/06 10:56:42;;;;;;;6.65;1.65;;;17.60;61.30;;;;;;5114653;28;20028;-74
2022/10/06 10:59:24;;;;;;;7.13;1.90;;;17.60;60.20;;;;;;5114586;28;20031;-74
2022/10/06 11:01:56;;;;;;;8.25;1.77;;;17.60;60.60;;;;;;5114601;28;20028;-74
2022/10/06 11:04:22;;;;;;;6.13;1.92;;;17.60;59.80;;;;;;5114485;28;20028;-74
2022/10/06 11:07:12;;;;;;;5.78;1.45;;;17.70;59.70;;;;;;5114422;28;20087;-73
2022/10/06 11:09:52;;;;;;;7.13;1.83;;;17.80;60.30;;;;;;5114587;28;20024;-74
2022/10/06 11:12:37;;;;;;;5.68;2.05;;;17.90;59.40;;;;;;5114383;28;20020;-73
2022/10/06 11:15:29;;;;;;;6.60;2.40;;;17.90;59.80;;;;;;5114473;28;20047;-74
2022/10/06 11:18:05;;;;;;;5.45;2.10;;;18.10;59.00;;;;;;5114411;28;20157;-73
2022/10/06 11:20:45;;;;;;;6.57;1.75;;;18.10;59.60;;;;;;5114228;28;20030;-73
2022/10/06 11:23:29;;;;;;;10.38;2.25;;;18.10;59.00;;;;;;5114303;28;20035;-74
2022/10/06 11:26:34;;;;;;;5.47;1.90;;;18.20;58.30;;;;;;5114232;28;20049;-74
2022/10/06 11:29:06;;;;;;;7.50;2.00;;;18.20;57.30;;;;;;5106544;28;20043;-74
2022/10/06 11:31:58;;;;;;;7.35;1.85;;;18.20;57.70;;;;;;5114046;28;20487;-74
2022/10/06 11:34:24;;;;;;;6.43;1.60;;;18.20;57.70;;;;;;5096080;28;20095;-74
2022/10/06 11:36:56;;;;;;;7.88;1.60;;;18.20;57.50;;;;;;5113940;28;20050;-74
2022/10/06 11:39:40;;;;;;;4.97;1.60;;;18.30;58.30;;;;;;5113890;28;20031;-74
2022/10/06 11:42:16;;;;;;;5.45;1.70;;;18.50;57.90;;;;;;5113872;28;20039;-74
2022/10/06 11:44:51;;;;;;;5.60;1.70;;;18.70;58.20;;;;;;5113813;28;20049;-74
2022/10/06 11:47:22;;;;;;;4.78;1.90;;;18.70;55.60;;;;;;5113664;28;20050;-74
2022/10/06 11:49:54;;;;;;;4.07;1.83;;;18.50;55.60;;;;;;5113591;28;20064;-73
2022/10/06 11:52:20;;;;;;;9.45;2.17;;;18.40;54.70;;;;;;5113778;28;20099;-73
2022/10/06 11:55:15;;;;;;;7.75;2.40;;;18.50;57.00;;;;;;5113305;28;20036;-74
2022/10/06 11:58:03;;;;;;;6.63;1.63;;;18.70;56.20;;;;;;5113675;28;20475;-73
2022/10/06 12:00:31;;;;;;;5.53;1.73;;;18.90;55.30;;;;;;5113610;28;20466;-74
2022/10/06 12:03:29;;;;;;;9.82;2.30;;;19.00;55.10;;;;;;5113582;28;20024;-73
2022/10/06 12:05:56;;;;;;;5.07;2.00;;;19.00;53.70;;;;;;5095531;28;20050;-74
2022/10/06 12:08:36;;;;;;;5.90;1.63;;;19.10;55.00;;;;;;5113587;28;20051;-74
2022/10/06 12:11:01;;;;;;;6.07;2.13;;;19.20;53.30;;;;;;5113512;28;20031;-73
2022/10/06 12:13:28;;;;;;;4.95;2.05;;;19.20;53.60;;;;;;5113478;28;20012;-74
2022/10/06 12:16:20;;;;;;;6.03;2.15;;;19.10;52.30;;;;;;5113479;28;20050;-74
2022/10/06 12:19:04;;;;;;;6.43;2.30;;;19.00;53.20;;;;;;5106199;28;20047;-73
2022/10/06 12:21:54;;;;;;;7.75;2.30;;;19.10;53.10;;;;;;5113474;28;20047;-74
2022/10/06 12:24:44;;;;;;;3.83;1.83;;;19.30;53.10;;;;;;5113594;28;20043;-73
2022/10/06 12:27:28;;;;;;;6.22;2.67;;;19.40;53.30;;;;;;5113247;28;20024;-73
2022/10/06 12:30:01;;;;;;;5.78;2.85;;;19.20;53.30;;;;;;5113297;28;20024;-74
2022/10/06 12:32:48;;;;;;;4.55;1.95;;;19.00;52.90;;;;;;5113384;28;20024;-74
2022/10/06 12:35:32;;;;;;;6.55;2.40;;;18.80;51.50;;;;;;5113450;28;20088;-74
2022/10/06 12:38:04;;;;;;;8.07;2.40;;;18.60;52.90;;;;;;5113283;28;20028;-73
2022/10/06 12:40:47;;;;;;;6.03;2.42;;;18.40;54.30;;;;;;5113314;28;20031;-74
2022/10/06 12:43:21;;;;;;;5.05;1.77;;;18.30;54.00;;;;;;5095317;28;20092;-74
2022/10/06 12:46:15;;;;;;;4.72;2.10;;;18.40;54.30;;;;;;5113336;28;20028;-74
2022/10/06 12:49:03;;;;;;;3.67;1.45;;;18.50;54.60;;;;;;5113277;28;20054;-74
2022/10/06 12:51:37;;;;;;;4.60;1.73;;;18.50;53.20;;;;;;5113016;28;20047;-74
2022/10/06 12:54:19;;;;;;;6.28;2.15;;;18.40;52.50;;;;;;5113185;28;20039;-74
2022/10/06 12:57:13;;;;;;;5.38;1.92;;;18.30;53.40;;;;;;5113080;28;20050;-74
2022/10/06 12:59:39;;;;;;;3.35;1.90;;;18.20;53.40;;;;;;5113272;28;20079;-74
2022/10/06 13:02:17;;;;;;;5.50;1.50;;;18.40;54.80;;;;;;5095319;28;20031;-74
2022/10/06 13:04:57;;;;;;;2.80;1.70;;;18.70;53.50;;;;;;5113089;28;20077;-74
2022/10/06 13:07:31;;;;;;;5.80;1.60;;;18.90;51.60;;;;;;5116742;28;20028;-74
2022/10/06 13:10:13;;;;;;;3.45;1.63;;;19.00;50.90;;;;;;5116890;28;20042;-74
2022/10/06 13:12:40;;;;;;;4.95;1.70;;;19.20;50.40;;;;;;5098633;28;20020;-74
2022/10/06 13:15:26;;;;;;;4.00;1.48;;;19.30;50.50;;;;;;5116584;28;20035;-74
2022/10/06 13:17:59;;;;;;;4.20;1.83;;;19.50;49.70;;;;;;5116587;28;20023;-74
2022/10/06 13:20:45;;;;;;;6.72;1.92;;;19.70;49.30;;;;;;5116580;28;20509;-73